sensor_id;sensor_type;location;lat;lon;timestamp;P1;durP1;ratioP1;P2;durP2;ratioP2
41043;SDS011;51680;49.806;18.774;2023-12-04T00:01:29;18.20;;;9.23;;
41043;SDS011;51680;49.806;18.774;2023-12-04T00:04:33;22.83;;;9.35;;
41043;SDS011;51680;49.806;18.774;2023-12-04T00:07:38;15.73;;;8.27;;
41043;SDS011;51680;49.806;18.774;2023-12-04T00:10:41;16.90;;;8.43;;
41043;SDS011;51680;49.806;18.774;2023-12-04T00:13:43;18.70;;;9.27;;
41043;SDS011;51680;49.806;18.774;2023-12-04T00:16:45;16.02;;;8.68;;
41043;SDS011;51680;49.806;18.774;2023-12-04T00:19:48;17.55;;;8.52;;
41043;SDS011;51680;49.806;18.774;2023-12-04T00:22:50;18.10;;;8.57;;
41043;SDS011;51680;49.806;18.774;2023-12-04T00:25:53;18.00;;;8.38;;
41043;SDS011;51680;49.806;18.774;2023-12-04T00:28:56;16.67;;;8.27;;
41043;SDS011;51680;49.806;18.774;2023-12-04T00:31:58;19.42;;;8.35;;
41043;SDS011;51680;49.806;18.774;2023-12-04T00:35:01;18.45;;;8.60;;
41043;SDS011;51680;49.806;18.774;2023-12-04T00:38:03;19.15;;;8.63;;
41043;SDS011;51680;49.806;18.774;2023-12-04T00:41:05;18.75;;;9.32;;
41043;SDS011;51680;49.806;18.774;2023-12-04T00:44:07;16.80;;;8.27;;
41043;SDS011;51680;49.806;18.774;2023-12-04T00:47:09;19.38;;;9.75;;
41043;SDS011;51680;49.806;18.774;2023-12-04T00:50:13;18.55;;;8.73;;
41043;SDS011;51680;49.806;18.774;2023-12-04T00:54:15;17.75;;;7.95;;
41043;SDS011;51680;49.806;18.774;2023-12-04T00:57:17;18.02;;;8.88;;
41043;SDS011;51680;49.806;18.774;2023-12-04T01:00:19;16.65;;;8.52;;
41043;SDS011;51680;49.806;18.774;2023-12-04T01:03:21;16.70;;;8.75;;
41043;SDS011;51680;49.806;18.774;2023-12-04T01:06:28;18.15;;;9.30;;
41043;SDS011;51680;49.806;18.774;2023-12-04T01:09:30;17.02;;;9.23;;
41043;SDS011;51680;49.806;18.774;2023-12-04T01:12:32;17.60;;;8.07;;
41043;SDS011;51680;49.806;18.774;2023-12-04T01:15:34;19.55;;;8.98;;
41043;SDS011;51680;49.806;18.774;2023-12-04T01:18:36;18.95;;;8.93;;
41043;SDS011;51680;49.806;18.774;2023-12-04T01:21:59;18.13;;;8.65;;
41043;SDS011;51680;49.806;18.774;2023-12-04T01:25:01;18.15;;;8.70;;
41043;SDS011;51680;49.806;18.774;2023-12-04T01:28:03;17.87;;;8.50;;
41043;SDS011;51680;49.806;18.774;2023-12-04T01:31:06;16.92;;;8.60;;
41043;SDS011;51680;49.806;18.774;2023-12-04T01:34:08;17.47;;;9.30;;
41043;SDS011;51680;49.806;18.774;2023-12-04T01:37:11;14.93;;;8.07;;
41043;SDS011;51680;49.806;18.774;2023-12-04T01:40:13;16.23;;;8.65;;
41043;SDS011;51680;49.806;18.774;2023-12-04T01:43:15;16.27;;;8.27;;
41043;SDS011;51680;49.806;18.774;2023-12-04T01:46:18;15.82;;;8.55;;
41043;SDS011;51680;49.806;18.774;2023-12-04T01:49:21;15.45;;;8.02;;
41043;SDS011;51680;49.806;18.774;2023-12-04T01:52:25;16.08;;;8.00;;
41043;SDS011;51680;49.806;18.774;2023-12-04T01:55:27;14.98;;;7.82;;
41043;SDS011;51680;49.806;18.774;2023-12-04T01:58:30;13.65;;;7.15;;
41043;SDS011;51680;49.806;18.774;2023-12-04T02:01:32;14.43;;;7.15;;
41043;SDS011;51680;49.806;18.774;2023-12-04T02:04:34;13.40;;;7.13;;
41043;SDS011;51680;49.806;18.774;2023-12-04T02:07:38;12.57;;;7.32;;
41043;SDS011;51680;49.806;18.774;2023-12-04T02:10:43;12.40;;;6.70;;
41043;SDS011;51680;49.806;18.774;2023-12-04T02:13:45;15.15;;;8.65;;
41043;SDS011;51680;49.806;18.774;2023-12-04T02:16:47;16.95;;;9.30;;
41043;SDS011;51680;49.806;18.774;2023-12-04T02:19:50;16.85;;;9.13;;
41043;SDS011;51680;49.806;18.774;2023-12-04T02:22:54;18.70;;;9.20;;
41043;SDS011;51680;49.806;18.774;2023-12-04T02:25:58;17.95;;;9.20;;
41043;SDS011;51680;49.806;18.774;2023-12-04T02:29:04;17.48;;;9.30;;
41043;SDS011;51680;49.806;18.774;2023-12-04T02:32:09;14.82;;;8.52;;
41043;SDS011;51680;49.806;18.774;2023-12-04T02:35:21;14.07;;;8.65;;
41043;SDS011;51680;49.806;18.774;2023-12-04T02:38:24;13.95;;;8.52;;
41043;SDS011;51680;49.806;18.774;2023-12-04T02:41:28;18.98;;;8.63;;
41043;SDS011;51680;49.806;18.774;2023-12-04T02:44:30;14.55;;;8.40;;
41043;SDS011;51680;49.806;18.774;2023-12-04T02:47:32;13.50;;;8.60;;
41043;SDS011;51680;49.806;18.774;2023-12-04T02:50:35;16.13;;;8.82;;
41043;SDS011;51680;49.806;18.774;2023-12-04T02:53:37;13.25;;;8.13;;
41043;SDS011;51680;49.806;18.774;2023-12-04T02:56:40;13.13;;;8.15;;
41043;SDS011;51680;49.806;18.774;2023-12-04T02:59:42;15.45;;;8.77;;
41043;SDS011;51680;49.806;18.774;2023-12-04T03:02:45;14.35;;;9.25;;
41043;SDS011;51680;49.806;18.774;2023-12-04T03:05:47;14.95;;;9.07;;
41043;SDS011;51680;49.806;18.774;2023-12-04T03:08:49;13.82;;;9.20;;
41043;SDS011;51680;49.806;18.774;2023-12-04T03:11:52;16.05;;;10.05;;
41043;SDS011;51680;49.806;18.774;2023-12-04T03:14:54;15.00;;;9.68;;
41043;SDS011;51680;49.806;18.774;2023-12-04T03:17:58;15.95;;;9.57;;
41043;SDS011;51680;49.806;18.774;2023-12-04T03:21:01;18.08;;;10.93;;
41043;SDS011;51680;49.806;18.774;2023-12-04T03:24:03;16.50;;;10.27;;
41043;SDS011;51680;49.806;18.774;2023-12-04T03:27:07;19.38;;;10.63;;
41043;SDS011;51680;49.806;18.774;2023-12-04T03:30:09;17.60;;;10.32;;
41043;SDS011;51680;49.806;18.774;2023-12-04T03:33:11;18.07;;;10.20;;
41043;SDS011;51680;49.806;18.774;2023-12-04T03:36:13;14.15;;;8.77;;
41043;SDS011;51680;49.806;18.774;2023-12-04T03:39:15;15.75;;;8.30;;
41043;SDS011;51680;49.806;18.774;2023-12-04T03:42:19;14.60;;;8.80;;
41043;SDS011;51680;49.806;18.774;2023-12-04T03:45:20;13.45;;;8.50;;
41043;SDS011;51680;49.806;18.774;2023-12-04T03:48:22;14.00;;;8.82;;
41043;SDS011;51680;49.806;18.774;2023-12-04T03:51:24;14.25;;;9.07;;
41043;SDS011;51680;49.806;18.774;2023-12-04T03:54:26;17.55;;;9.88;;
41043;SDS011;51680;49.806;18.774;2023-12-04T03:57:30;15.30;;;9.55;;
41043;SDS011;51680;49.806;18.774;2023-12-04T04:00:32;16.13;;;10.27;;
41043;SDS011;51680;49.806;18.774;2023-12-04T04:03:33;15.57;;;10.10;;
41043;SDS011;51680;49.806;18.774;2023-12-04T04:06:35;17.23;;;9.68;;
41043;SDS011;51680;49.806;18.774;2023-12-04T04:09:38;15.87;;;9.07;;
41043;SDS011;51680;49.806;18.774;2023-12-04T04:12:42;15.57;;;9.40;;
41043;SDS011;51680;49.806;18.774;2023-12-04T04:15:43;16.42;;;9.40;;
41043;SDS011;51680;49.806;18.774;2023-12-04T04:18:46;14.27;;;9.45;;
41043;SDS011;51680;49.806;18.774;2023-12-04T04:21:48;15.93;;;9.43;;
41043;SDS011;51680;49.806;18.774;2023-12-04T04:24:50;15.10;;;9.30;;
41043;SDS011;51680;49.806;18.774;2023-12-04T04:27:53;18.40;;;10.10;;
41043;SDS011;51680;49.806;18.774;2023-12-04T04:30:55;15.93;;;9.45;;
41043;SDS011;51680;49.806;18.774;2023-12-04T04:33:57;19.00;;;10.27;;
41043;SDS011;51680;49.806;18.774;2023-12-04T04:36:59;16.98;;;9.65;;
41043;SDS011;51680;49.806;18.774;2023-12-04T04:40:01;17.67;;;10.32;;
41043;SDS011;51680;49.806;18.774;2023-12-04T04:43:05;17.02;;;9.90;;
41043;SDS011;51680;49.806;18.774;2023-12-04T04:46:07;17.23;;;10.07;;
41043;SDS011;51680;49.806;18.774;2023-12-04T04:49:09;17.20;;;9.57;;
41043;SDS011;51680;49.806;18.774;2023-12-04T04:52:11;18.00;;;10.23;;
41043;SDS011;51680;49.806;18.774;2023-12-04T04:55:13;17.88;;;11.15;;
41043;SDS011;51680;49.806;18.774;2023-12-04T04:58:17;19.23;;;10.98;;
41043;SDS011;51680;49.806;18.774;2023-12-04T05:01:19;24.60;;;12.73;;
41043;SDS011;51680;49.806;18.774;2023-12-04T05:04:21;21.30;;;11.43;;
41043;SDS011;51680;49.806;18.774;2023-12-04T05:07:23;24.40;;;12.15;;
41043;SDS011;51680;49.806;18.774;2023-12-04T05:10:25;27.50;;;13.98;;
41043;SDS011;51680;49.806;18.774;2023-12-04T05:13:28;27.58;;;14.23;;
41043;SDS011;51680;49.806;18.774;2023-12-04T05:16:31;28.50;;;14.60;;
41043;SDS011;51680;49.806;18.774;2023-12-04T05:19:33;27.87;;;14.30;;
41043;SDS011;51680;49.806;18.774;2023-12-04T05:22:35;26.33;;;14.15;;
41043;SDS011;51680;49.806;18.774;2023-12-04T05:25:37;25.65;;;13.80;;
41043;SDS011;51680;49.806;18.774;2023-12-04T05:28:40;27.27;;;13.18;;
41043;SDS011;51680;49.806;18.774;2023-12-04T05:31:42;26.15;;;12.43;;
41043;SDS011;51680;49.806;18.774;2023-12-04T05:34:44;20.65;;;11.68;;
41043;SDS011;51680;49.806;18.774;2023-12-04T05:37:46;26.60;;;13.13;;
41043;SDS011;51680;49.806;18.774;2023-12-04T05:40:48;23.25;;;12.23;;
41043;SDS011;51680;49.806;18.774;2023-12-04T05:43:52;24.30;;;12.20;;
41043;SDS011;51680;49.806;18.774;2023-12-04T05:46:54;23.02;;;12.23;;
41043;SDS011;51680;49.806;18.774;2023-12-04T05:49:59;21.88;;;11.68;;
41043;SDS011;51680;49.806;18.774;2023-12-04T05:53:01;19.65;;;11.10;;
41043;SDS011;51680;49.806;18.774;2023-12-04T05:56:04;25.30;;;11.63;;
41043;SDS011;51680;49.806;18.774;2023-12-04T05:59:08;22.08;;;12.15;;
41043;SDS011;51680;49.806;18.774;2023-12-04T06:02:10;21.67;;;12.18;;
41043;SDS011;51680;49.806;18.774;2023-12-04T06:05:13;20.02;;;11.65;;
41043;SDS011;51680;49.806;18.774;2023-12-04T06:08:15;23.58;;;12.23;;
41043;SDS011;51680;49.806;18.774;2023-12-04T06:11:17;24.88;;;12.32;;
41043;SDS011;51680;49.806;18.774;2023-12-04T06:14:20;22.27;;;12.80;;
41043;SDS011;51680;49.806;18.774;2023-12-04T06:17:22;24.10;;;12.25;;
41043;SDS011;51680;49.806;18.774;2023-12-04T06:20:24;25.73;;;13.43;;
41043;SDS011;51680;49.806;18.774;2023-12-04T06:23:26;24.70;;;13.43;;
41043;SDS011;51680;49.806;18.774;2023-12-04T06:26:29;23.98;;;12.82;;
41043;SDS011;51680;49.806;18.774;2023-12-04T06:29:34;24.17;;;12.88;;
41043;SDS011;51680;49.806;18.774;2023-12-04T06:32:39;28.52;;;13.73;;
41043;SDS011;51680;49.806;18.774;2023-12-04T06:35:42;26.17;;;13.03;;
41043;SDS011;51680;49.806;18.774;2023-12-04T06:38:44;31.03;;;13.77;;
41043;SDS011;51680;49.806;18.774;2023-12-04T06:41:48;32.45;;;15.93;;
41043;SDS011;51680;49.806;18.774;2023-12-04T06:44:55;32.58;;;15.10;;
41043;SDS011;51680;49.806;18.774;2023-12-04T06:47:57;30.58;;;13.88;;
41043;SDS011;51680;49.806;18.774;2023-12-04T06:51:01;31.50;;;14.93;;
41043;SDS011;51680;49.806;18.774;2023-12-04T06:54:03;34.47;;;15.87;;
41043;SDS011;51680;49.806;18.774;2023-12-04T06:57:05;29.80;;;14.95;;
41043;SDS011;51680;49.806;18.774;2023-12-04T07:00:09;30.77;;;15.30;;
41043;SDS011;51680;49.806;18.774;2023-12-04T07:03:12;33.60;;;16.27;;
41043;SDS011;51680;49.806;18.774;2023-12-04T07:06:14;30.25;;;15.70;;
41043;SDS011;51680;49.806;18.774;2023-12-04T07:09:17;24.27;;;13.75;;
41043;SDS011;51680;49.806;18.774;2023-12-04T07:12:19;27.60;;;14.30;;
41043;SDS011;51680;49.806;18.774;2023-12-04T07:15:22;27.13;;;15.15;;
41043;SDS011;51680;49.806;18.774;2023-12-04T07:18:24;27.33;;;16.00;;
41043;SDS011;51680;49.806;18.774;2023-12-04T07:21:26;29.20;;;15.00;;
41043;SDS011;51680;49.806;18.774;2023-12-04T07:24:28;29.42;;;16.75;;
41043;SDS011;51680;49.806;18.774;2023-12-04T07:27:30;31.88;;;17.13;;
41043;SDS011;51680;49.806;18.774;2023-12-04T07:30:34;30.98;;;17.55;;
41043;SDS011;51680;49.806;18.774;2023-12-04T07:33:36;32.55;;;18.67;;
41043;SDS011;51680;49.806;18.774;2023-12-04T07:36:38;42.33;;;24.90;;
41043;SDS011;51680;49.806;18.774;2023-12-04T07:39:40;42.58;;;21.58;;
41043;SDS011;51680;49.806;18.774;2023-12-04T07:42:43;37.95;;;20.95;;
41043;SDS011;51680;49.806;18.774;2023-12-04T07:45:46;35.50;;;18.90;;
41043;SDS011;51680;49.806;18.774;2023-12-04T07:48:48;34.35;;;18.67;;
41043;SDS011;51680;49.806;18.774;2023-12-04T07:51:51;42.00;;;21.45;;
41043;SDS011;51680;49.806;18.774;2023-12-04T07:54:52;41.50;;;21.48;;
41043;SDS011;51680;49.806;18.774;2023-12-04T07:57:54;34.38;;;19.58;;
41043;SDS011;51680;49.806;18.774;2023-12-04T08:00:59;36.75;;;18.42;;
41043;SDS011;51680;49.806;18.774;2023-12-04T08:04:01;37.35;;;18.33;;
41043;SDS011;51680;49.806;18.774;2023-12-04T08:07:03;30.88;;;17.58;;
41043;SDS011;51680;49.806;18.774;2023-12-04T08:10:06;33.22;;;17.15;;
41043;SDS011;51680;49.806;18.774;2023-12-04T08:13:10;32.85;;;18.20;;
41043;SDS011;51680;49.806;18.774;2023-12-04T08:16:14;31.15;;;16.63;;
41043;SDS011;51680;49.806;18.774;2023-12-04T08:19:16;34.72;;;18.02;;
41043;SDS011;51680;49.806;18.774;2023-12-04T08:22:18;42.72;;;20.70;;
41043;SDS011;51680;49.806;18.774;2023-12-04T08:25:20;43.53;;;21.50;;
41043;SDS011;51680;49.806;18.774;2023-12-04T08:28:22;49.65;;;22.38;;
41043;SDS011;51680;49.806;18.774;2023-12-04T08:31:26;32.25;;;12.15;;
41043;SDS011;51680;49.806;18.774;2023-12-04T08:34:30;55.83;;;23.42;;
41043;SDS011;51680;49.806;18.774;2023-12-04T08:37:32;55.25;;;22.63;;
41043;SDS011;51680;49.806;18.774;2023-12-04T08:40:36;54.00;;;22.85;;
41043;SDS011;51680;49.806;18.774;2023-12-04T08:43:38;47.47;;;21.83;;
41043;SDS011;51680;49.806;18.774;2023-12-04T08:46:43;40.88;;;19.63;;
41043;SDS011;51680;49.806;18.774;2023-12-04T08:49:45;42.15;;;19.27;;
41043;SDS011;51680;49.806;18.774;2023-12-04T08:52:47;33.70;;;15.75;;
41043;SDS011;51680;49.806;18.774;2023-12-04T08:55:49;29.25;;;15.00;;
41043;SDS011;51680;49.806;18.774;2023-12-04T08:58:52;35.83;;;15.48;;
41043;SDS011;51680;49.806;18.774;2023-12-04T09:01:55;29.65;;;13.75;;
41043;SDS011;51680;49.806;18.774;2023-12-04T09:05:16;28.73;;;12.90;;
41043;SDS011;51680;49.806;18.774;2023-12-04T09:08:18;32.95;;;12.48;;
41043;SDS011;51680;49.806;18.774;2023-12-04T09:11:20;27.80;;;14.20;;
41043;SDS011;51680;49.806;18.774;2023-12-04T09:14:22;24.45;;;11.00;;
41043;SDS011;51680;49.806;18.774;2023-12-04T09:17:25;22.25;;;11.32;;
41043;SDS011;51680;49.806;18.774;2023-12-04T09:20:27;19.25;;;10.00;;
41043;SDS011;51680;49.806;18.774;2023-12-04T09:23:30;19.05;;;7.95;;
41043;SDS011;51680;49.806;18.774;2023-12-04T09:26:32;19.67;;;9.80;;
41043;SDS011;51680;49.806;18.774;2023-12-04T09:29:34;21.15;;;10.05;;
41043;SDS011;51680;49.806;18.774;2023-12-04T09:32:37;22.60;;;12.43;;
41043;SDS011;51680;49.806;18.774;2023-12-04T09:35:39;26.08;;;13.10;;
41043;SDS011;51680;49.806;18.774;2023-12-04T09:38:42;25.67;;;12.32;;
41043;SDS011;51680;49.806;18.774;2023-12-04T09:41:45;19.13;;;9.75;;
41043;SDS011;51680;49.806;18.774;2023-12-04T09:44:48;19.85;;;9.38;;
41043;SDS011;51680;49.806;18.774;2023-12-04T09:47:51;18.55;;;9.38;;
41043;SDS011;51680;49.806;18.774;2023-12-04T09:50:55;19.02;;;10.57;;
41043;SDS011;51680;49.806;18.774;2023-12-04T09:53:59;20.83;;;11.27;;
41043;SDS011;51680;49.806;18.774;2023-12-04T09:57:04;19.77;;;11.25;;
41043;SDS011;51680;49.806;18.774;2023-12-04T10:00:07;18.52;;;9.77;;
41043;SDS011;51680;49.806;18.774;2023-12-04T10:03:16;14.32;;;9.15;;
41043;SDS011;51680;49.806;18.774;2023-12-04T10:06:18;16.73;;;9.70;;
41043;SDS011;51680;49.806;18.774;2023-12-04T10:09:21;16.87;;;9.33;;
41043;SDS011;51680;49.806;18.774;2023-12-04T10:12:24;18.80;;;9.63;;
41043;SDS011;51680;49.806;18.774;2023-12-04T10:15:26;15.23;;;8.45;;
41043;SDS011;51680;49.806;18.774;2023-12-04T10:18:30;18.05;;;8.40;;
41043;SDS011;51680;49.806;18.774;2023-12-04T10:21:33;17.48;;;8.55;;
41043;SDS011;51680;49.806;18.774;2023-12-04T10:24:36;20.95;;;9.10;;
41043;SDS011;51680;49.806;18.774;2023-12-04T10:30:41;12.85;;;7.57;;
41043;SDS011;51680;49.806;18.774;2023-12-04T10:33:45;13.43;;;7.88;;
41043;SDS011;51680;49.806;18.774;2023-12-04T10:36:49;15.95;;;8.50;;
41043;SDS011;51680;49.806;18.774;2023-12-04T10:39:51;16.17;;;8.52;;
41043;SDS011;51680;49.806;18.774;2023-12-04T10:43:10;16.75;;;8.32;;
41043;SDS011;51680;49.806;18.774;2023-12-04T10:46:13;15.65;;;8.88;;
41043;SDS011;51680;49.806;18.774;2023-12-04T10:49:18;14.55;;;8.85;;
41043;SDS011;51680;49.806;18.774;2023-12-04T10:52:20;16.38;;;8.45;;
41043;SDS011;51680;49.806;18.774;2023-12-04T10:55:22;14.45;;;8.50;;
41043;SDS011;51680;49.806;18.774;2023-12-04T10:58:25;14.82;;;8.50;;
41043;SDS011;51680;49.806;18.774;2023-12-04T11:01:28;17.38;;;9.65;;
41043;SDS011;51680;49.806;18.774;2023-12-04T11:07:38;14.07;;;8.55;;
41043;SDS011;51680;49.806;18.774;2023-12-04T11:14:06;12.10;;;5.82;;
41043;SDS011;51680;49.806;18.774;2023-12-04T11:17:12;12.77;;;6.25;;
41043;SDS011;51680;49.806;18.774;2023-12-04T11:20:17;13.80;;;6.50;;
41043;SDS011;51680;49.806;18.774;2023-12-04T11:23:21;13.27;;;6.88;;
41043;SDS011;51680;49.806;18.774;2023-12-04T11:26:24;13.93;;;7.53;;
41043;SDS011;51680;49.806;18.774;2023-12-04T11:29:26;15.03;;;7.23;;
41043;SDS011;51680;49.806;18.774;2023-12-04T11:32:30;13.65;;;6.07;;
41043;SDS011;51680;49.806;18.774;2023-12-04T11:35:34;12.63;;;6.53;;
41043;SDS011;51680;49.806;18.774;2023-12-04T11:38:36;10.15;;;5.55;;
41043;SDS011;51680;49.806;18.774;2023-12-04T11:41:40;12.25;;;6.40;;
41043;SDS011;51680;49.806;18.774;2023-12-04T11:44:42;9.93;;;4.97;;
41043;SDS011;51680;49.806;18.774;2023-12-04T11:47:51;5.28;;;3.00;;
41043;SDS011;51680;49.806;18.774;2023-12-04T11:50:57;8.40;;;4.25;;
41043;SDS011;51680;49.806;18.774;2023-12-04T11:54:01;8.27;;;4.40;;
41043;SDS011;51680;49.806;18.774;2023-12-04T11:57:20;6.95;;;3.45;;
41043;SDS011;51680;49.806;18.774;2023-12-04T12:00:24;8.50;;;3.53;;
41043;SDS011;51680;49.806;18.774;2023-12-04T12:03:26;12.18;;;7.00;;
41043;SDS011;51680;49.806;18.774;2023-12-04T12:06:30;7.93;;;3.75;;
41043;SDS011;51680;49.806;18.774;2023-12-04T12:12:34;13.30;;;6.07;;
41043;SDS011;51680;49.806;18.774;2023-12-04T12:15:37;15.02;;;7.88;;
41043;SDS011;51680;49.806;18.774;2023-12-04T12:18:40;14.90;;;7.10;;
41043;SDS011;51680;49.806;18.774;2023-12-04T12:21:43;11.77;;;6.15;;
41043;SDS011;51680;49.806;18.774;2023-12-04T12:27:48;9.07;;;3.13;;
41043;SDS011;51680;49.806;18.774;2023-12-04T12:30:49;11.23;;;5.60;;
41043;SDS011;51680;49.806;18.774;2023-12-04T12:33:53;11.90;;;5.68;;
41043;SDS011;51680;49.806;18.774;2023-12-04T12:36:58;14.15;;;6.75;;
41043;SDS011;51680;49.806;18.774;2023-12-04T12:40:00;18.45;;;6.70;;
41043;SDS011;51680;49.806;18.774;2023-12-04T12:43:05;13.55;;;6.60;;
41043;SDS011;51680;49.806;18.774;2023-12-04T12:46:07;13.80;;;6.65;;
41043;SDS011;51680;49.806;18.774;2023-12-04T12:49:12;8.77;;;4.22;;
41043;SDS011;51680;49.806;18.774;2023-12-04T12:52:17;4.82;;;2.67;;
41043;SDS011;51680;49.806;18.774;2023-12-04T12:55:22;9.73;;;4.18;;
41043;SDS011;51680;49.806;18.774;2023-12-04T12:58:25;10.18;;;5.38;;
41043;SDS011;51680;49.806;18.774;2023-12-04T13:01:30;13.20;;;5.35;;
41043;SDS011;51680;49.806;18.774;2023-12-04T13:04:35;8.82;;;3.67;;
41043;SDS011;51680;49.806;18.774;2023-12-04T13:07:39;10.90;;;5.53;;
41043;SDS011;51680;49.806;18.774;2023-12-04T13:10:41;7.05;;;3.67;;
41043;SDS011;51680;49.806;18.774;2023-12-04T13:13:43;7.13;;;3.70;;
41043;SDS011;51680;49.806;18.774;2023-12-04T13:16:46;13.05;;;4.80;;
41043;SDS011;51680;49.806;18.774;2023-12-04T13:19:48;7.97;;;4.00;;
41043;SDS011;51680;49.806;18.774;2023-12-04T13:22:51;14.63;;;6.05;;
41043;SDS011;51680;49.806;18.774;2023-12-04T13:25:53;14.23;;;6.05;;
41043;SDS011;51680;49.806;18.774;2023-12-04T13:28:55;12.05;;;5.57;;
41043;SDS011;51680;49.806;18.774;2023-12-04T13:31:57;9.85;;;4.88;;
41043;SDS011;51680;49.806;18.774;2023-12-04T13:34:59;7.50;;;2.92;;
41043;SDS011;51680;49.806;18.774;2023-12-04T13:38:03;14.70;;;7.03;;
41043;SDS011;51680;49.806;18.774;2023-12-04T13:41:13;12.80;;;6.15;;
41043;SDS011;51680;49.806;18.774;2023-12-04T13:44:40;19.13;;;4.85;;
41043;SDS011;51680;49.806;18.774;2023-12-04T13:47:41;14.90;;;7.03;;
41043;SDS011;51680;49.806;18.774;2023-12-04T13:50:44;6.18;;;3.25;;
41043;SDS011;51680;49.806;18.774;2023-12-04T13:53:47;17.23;;;7.88;;
41043;SDS011;51680;49.806;18.774;2023-12-04T13:56:50;12.85;;;6.68;;
41043;SDS011;51680;49.806;18.774;2023-12-04T13:59:56;12.15;;;5.88;;
41043;SDS011;51680;49.806;18.774;2023-12-04T14:02:59;13.00;;;5.80;;
41043;SDS011;51680;49.806;18.774;2023-12-04T14:06:05;15.73;;;6.57;;
41043;SDS011;51680;49.806;18.774;2023-12-04T14:09:08;19.95;;;5.13;;
41043;SDS011;51680;49.806;18.774;2023-12-04T14:12:14;20.48;;;8.45;;
41043;SDS011;51680;49.806;18.774;2023-12-04T14:15:17;17.20;;;7.10;;
41043;SDS011;51680;49.806;18.774;2023-12-04T14:18:19;19.48;;;8.43;;
41043;SDS011;51680;49.806;18.774;2023-12-04T14:21:21;9.15;;;3.78;;
41043;SDS011;51680;49.806;18.774;2023-12-04T14:24:24;14.65;;;7.13;;
41043;SDS011;51680;49.806;18.774;2023-12-04T14:27:28;14.90;;;7.28;;
41043;SDS011;51680;49.806;18.774;2023-12-04T14:30:30;16.35;;;6.95;;
41043;SDS011;51680;49.806;18.774;2023-12-04T14:33:32;20.70;;;8.63;;
41043;SDS011;51680;49.806;18.774;2023-12-04T14:36:34;21.58;;;10.25;;
41043;SDS011;51680;49.806;18.774;2023-12-04T14:39:38;23.02;;;9.73;;
41043;SDS011;51680;49.806;18.774;2023-12-04T14:42:40;14.48;;;6.60;;
41043;SDS011;51680;49.806;18.774;2023-12-04T14:45:42;19.10;;;8.75;;
41043;SDS011;51680;49.806;18.774;2023-12-04T14:48:45;19.30;;;8.93;;
41043;SDS011;51680;49.806;18.774;2023-12-04T14:51:47;16.77;;;6.05;;
41043;SDS011;51680;49.806;18.774;2023-12-04T14:54:50;15.55;;;5.32;;
41043;SDS011;51680;49.806;18.774;2023-12-04T14:58:13;13.15;;;5.70;;
41043;SDS011;51680;49.806;18.774;2023-12-04T15:01:42;12.57;;;5.47;;
41043;SDS011;51680;49.806;18.774;2023-12-04T15:05:16;7.15;;;3.45;;
41043;SDS011;51680;49.806;18.774;2023-12-04T15:08:45;13.43;;;5.65;;
41043;SDS011;51680;49.806;18.774;2023-12-04T15:12:08;15.13;;;5.95;;
41043;SDS011;51680;49.806;18.774;2023-12-04T15:15:22;13.27;;;5.75;;
41043;SDS011;51680;49.806;18.774;2023-12-04T15:18:39;13.60;;;4.95;;
41043;SDS011;51680;49.806;18.774;2023-12-04T15:22:00;15.80;;;6.57;;
41043;SDS011;51680;49.806;18.774;2023-12-04T15:25:02;14.93;;;6.43;;
41043;SDS011;51680;49.806;18.774;2023-12-04T15:28:05;12.10;;;5.38;;
41043;SDS011;51680;49.806;18.774;2023-12-04T15:34:09;16.35;;;7.45;;
41043;SDS011;51680;49.806;18.774;2023-12-04T15:37:11;15.90;;;7.35;;
41043;SDS011;51680;49.806;18.774;2023-12-04T15:40:13;15.25;;;7.70;;
41043;SDS011;51680;49.806;18.774;2023-12-04T15:43:17;12.55;;;5.25;;
41043;SDS011;51680;49.806;18.774;2023-12-04T15:49:22;14.52;;;6.95;;
41043;SDS011;51680;49.806;18.774;2023-12-04T15:52:24;17.42;;;7.18;;
41043;SDS011;51680;49.806;18.774;2023-12-04T15:55:26;20.67;;;9.10;;
41043;SDS011;51680;49.806;18.774;2023-12-04T15:58:30;9.13;;;3.53;;
41043;SDS011;51680;49.806;18.774;2023-12-04T16:01:32;16.33;;;7.03;;
41043;SDS011;51680;49.806;18.774;2023-12-04T16:04:34;16.98;;;6.70;;
41043;SDS011;51680;49.806;18.774;2023-12-04T16:07:37;18.27;;;8.02;;
41043;SDS011;51680;49.806;18.774;2023-12-04T16:10:57;13.45;;;5.20;;
41043;SDS011;51680;49.806;18.774;2023-12-04T16:14:00;11.93;;;4.55;;
41043;SDS011;51680;49.806;18.774;2023-12-04T16:17:02;14.07;;;5.53;;
41043;SDS011;51680;49.806;18.774;2023-12-04T16:20:05;8.70;;;3.35;;
41043;SDS011;51680;49.806;18.774;2023-12-04T16:23:10;17.73;;;6.85;;
41043;SDS011;51680;49.806;18.774;2023-12-04T16:26:12;14.77;;;6.45;;
41043;SDS011;51680;49.806;18.774;2023-12-04T16:29:15;15.52;;;5.13;;
41043;SDS011;51680;49.806;18.774;2023-12-04T16:32:17;19.60;;;7.25;;
41043;SDS011;51680;49.806;18.774;2023-12-04T16:35:20;22.73;;;9.23;;
41043;SDS011;51680;49.806;18.774;2023-12-04T16:38:22;17.75;;;7.65;;
41043;SDS011;51680;49.806;18.774;2023-12-04T16:41:26;13.07;;;5.38;;
41043;SDS011;51680;49.806;18.774;2023-12-04T16:44:30;18.52;;;6.88;;
41043;SDS011;51680;49.806;18.774;2023-12-04T16:47:32;17.92;;;6.72;;
41043;SDS011;51680;49.806;18.774;2023-12-04T16:50:33;19.73;;;8.30;;
41043;SDS011;51680;49.806;18.774;2023-12-04T16:53:37;20.45;;;9.15;;
41043;SDS011;51680;49.806;18.774;2023-12-04T16:56:39;24.92;;;9.27;;
41043;SDS011;51680;49.806;18.774;2023-12-04T16:59:42;11.95;;;4.75;;
41043;SDS011;51680;49.806;18.774;2023-12-04T17:02:44;14.20;;;5.28;;
41043;SDS011;51680;49.806;18.774;2023-12-04T17:05:46;17.17;;;7.90;;
41043;SDS011;51680;49.806;18.774;2023-12-04T17:08:48;16.88;;;7.53;;
41043;SDS011;51680;49.806;18.774;2023-12-04T17:11:50;14.03;;;6.07;;
41043;SDS011;51680;49.806;18.774;2023-12-04T17:14:54;15.55;;;6.88;;
41043;SDS011;51680;49.806;18.774;2023-12-04T17:17:56;15.88;;;6.63;;
41043;SDS011;51680;49.806;18.774;2023-12-04T17:20:58;15.95;;;7.22;;
41043;SDS011;51680;49.806;18.774;2023-12-04T17:24:00;16.52;;;7.05;;
41043;SDS011;51680;49.806;18.774;2023-12-04T17:27:03;8.75;;;3.72;;
41043;SDS011;51680;49.806;18.774;2023-12-04T17:30:07;15.20;;;6.73;;
41043;SDS011;51680;49.806;18.774;2023-12-04T17:33:10;16.50;;;7.03;;
41043;SDS011;51680;49.806;18.774;2023-12-04T17:36:12;17.35;;;7.50;;
41043;SDS011;51680;49.806;18.774;2023-12-04T17:39:14;14.38;;;7.05;;
41043;SDS011;51680;49.806;18.774;2023-12-04T17:42:17;15.55;;;8.05;;
41043;SDS011;51680;49.806;18.774;2023-12-04T17:45:20;15.93;;;7.70;;
41043;SDS011;51680;49.806;18.774;2023-12-04T17:48:22;20.67;;;8.65;;
41043;SDS011;51680;49.806;18.774;2023-12-04T17:51:24;17.58;;;8.43;;
41043;SDS011;51680;49.806;18.774;2023-12-04T17:54:27;15.18;;;5.75;;
41043;SDS011;51680;49.806;18.774;2023-12-04T17:57:28;25.30;;;10.80;;
41043;SDS011;51680;49.806;18.774;2023-12-04T18:00:32;21.67;;;9.73;;
41043;SDS011;51680;49.806;18.774;2023-12-04T18:03:34;28.65;;;10.85;;
41043;SDS011;51680;49.806;18.774;2023-12-04T18:06:36;21.33;;;9.50;;
41043;SDS011;51680;49.806;18.774;2023-12-04T18:09:38;23.90;;;9.93;;
41043;SDS011;51680;49.806;18.774;2023-12-04T18:12:41;24.60;;;10.13;;